sensor_id;sensor_type;location;lat;lon;timestamp;P1;durP1;ratioP1;P2;durP2;ratioP2
75990;SDS011;64673;52.276;10.560;2023-02-28T00:01:26;9.30;;;4.10;;
75990;SDS011;64673;52.276;10.560;2023-02-28T00:03:51;7.47;;;3.55;;
75990;SDS011;64673;52.276;10.560;2023-02-28T00:06:16;7.53;;;3.97;;
75990;SDS011;64673;52.276;10.560;2023-02-28T00:08:42;8.85;;;3.58;;
75990;SDS011;64673;52.276;10.560;2023-02-28T00:11:09;8.75;;;3.72;;
75990;SDS011;64673;52.276;10.560;2023-02-28T00:13:37;6.53;;;3.63;;
75990;SDS011;64673;52.276;10.560;2023-02-28T00:16:05;7.53;;;3.70;;
75990;SDS011;64673;52.276;10.560;2023-02-28T00:18:35;8.48;;;3.63;;
75990;SDS011;64673;52.276;10.560;2023-02-28T00:21:01;8.00;;;3.80;;
75990;SDS011;64673;52.276;10.560;2023-02-28T00:23:27;8.73;;;3.88;;
75990;SDS011;64673;52.276;10.560;2023-02-28T00:25:53;11.15;;;4.18;;
75990;SDS011;64673;52.276;10.560;2023-02-28T00:28:19;7.00;;;4.07;;
75990;SDS011;64673;52.276;10.560;2023-02-28T00:30:45;7.80;;;3.58;;
75990;SDS011;64673;52.276;10.560;2023-02-28T00:33:10;8.43;;;3.65;;
75990;SDS011;64673;52.276;10.560;2023-02-28T00:35:36;8.18;;;3.95;;
75990;SDS011;64673;52.276;10.560;2023-02-28T00:38:01;8.45;;;3.67;;
75990;SDS011;64673;52.276;10.560;2023-02-28T00:40:27;6.50;;;3.20;;
75990;SDS011;64673;52.276;10.560;2023-02-28T00:42:53;8.82;;;4.10;;
75990;SDS011;64673;52.276;10.560;2023-02-28T00:45:18;6.95;;;3.03;;
75990;SDS011;64673;52.276;10.560;2023-02-28T00:47:44;7.47;;;4.22;;
75990;SDS011;64673;52.276;10.560;2023-02-28T00:50:11;9.05;;;3.88;;
75990;SDS011;64673;52.276;10.560;2023-02-28T00:52:36;6.00;;;3.25;;
75990;SDS011;64673;52.276;10.560;2023-02-28T00:55:02;7.68;;;3.30;;
75990;SDS011;64673;52.276;10.560;2023-02-28T00:57:27;7.10;;;3.28;;
75990;SDS011;64673;52.276;10.560;2023-02-28T00:59:52;7.30;;;3.47;;
75990;SDS011;64673;52.276;10.560;2023-02-28T01:02:21;7.82;;;4.03;;
75990;SDS011;64673;52.276;10.560;2023-02-28T01:04:47;6.88;;;3.25;;
75990;SDS011;64673;52.276;10.560;2023-02-28T01:07:13;8.60;;;3.58;;
75990;SDS011;64673;52.276;10.560;2023-02-28T01:09:39;7.45;;;3.67;;
75990;SDS011;64673;52.276;10.560;2023-02-28T01:12:05;7.68;;;3.67;;
75990;SDS011;64673;52.276;10.560;2023-02-28T01:14:32;9.55;;;3.83;;
75990;SDS011;64673;52.276;10.560;2023-02-28T01:16:57;8.32;;;3.50;;
75990;SDS011;64673;52.276;10.560;2023-02-28T01:19:22;7.05;;;3.63;;
75990;SDS011;64673;52.276;10.560;2023-02-28T01:21:48;7.55;;;3.67;;
75990;SDS011;64673;52.276;10.560;2023-02-28T01:24:13;5.20;;;2.70;;
75990;SDS011;64673;52.276;10.560;2023-02-28T01:26:38;6.82;;;3.33;;
75990;SDS011;64673;52.276;10.560;2023-02-28T01:29:04;6.55;;;3.70;;
75990;SDS011;64673;52.276;10.560;2023-02-28T01:31:29;8.38;;;3.45;;
75990;SDS011;64673;52.276;10.560;2023-02-28T01:33:54;6.65;;;3.50;;
75990;SDS011;64673;52.276;10.560;2023-02-28T01:36:21;6.32;;;3.97;;
75990;SDS011;64673;52.276;10.560;2023-02-28T01:38:48;8.70;;;3.95;;
75990;SDS011;64673;52.276;10.560;2023-02-28T01:41:15;7.43;;;3.95;;
75990;SDS011;64673;52.276;10.560;2023-02-28T01:46:08;8.23;;;3.90;;
75990;SDS011;64673;52.276;10.560;2023-02-28T01:48:35;11.57;;;4.25;;
75990;SDS011;64673;52.276;10.560;2023-02-28T01:51:11;7.60;;;3.30;;
75990;SDS011;64673;52.276;10.560;2023-02-28T01:53:44;6.30;;;3.22;;
75990;SDS011;64673;52.276;10.560;2023-02-28T01:56:13;8.60;;;3.90;;
75990;SDS011;64673;52.276;10.560;2023-02-28T01:58:49;5.82;;;3.42;;
75990;SDS011;64673;52.276;10.560;2023-02-28T02:01:16;7.32;;;3.33;;
75990;SDS011;64673;52.276;10.560;2023-02-28T02:03:47;7.63;;;3.97;;
75990;SDS011;64673;52.276;10.560;2023-02-28T02:06:20;9.60;;;3.55;;
75990;SDS011;64673;52.276;10.560;2023-02-28T02:08:47;5.90;;;2.95;;
75990;SDS011;64673;52.276;10.560;2023-02-28T02:11:12;7.40;;;3.17;;
75990;SDS011;64673;52.276;10.560;2023-02-28T02:21:53;5.50;;;3.13;;
75990;SDS011;64673;52.276;10.560;2023-02-28T02:27:13;3.72;;;2.30;;
75990;SDS011;64673;52.276;10.560;2023-02-28T02:29:59;6.20;;;2.80;;
75990;SDS011;64673;52.276;10.560;2023-02-28T02:32:54;7.47;;;3.58;;
75990;SDS011;64673;52.276;10.560;2023-02-28T02:35:30;7.10;;;3.45;;
75990;SDS011;64673;52.276;10.560;2023-02-28T02:38:09;8.73;;;3.83;;
75990;SDS011;64673;52.276;10.560;2023-02-28T02:41:08;8.55;;;3.50;;
75990;SDS011;64673;52.276;10.560;2023-02-28T02:43:51;7.15;;;3.35;;
75990;SDS011;64673;52.276;10.560;2023-02-28T02:48:52;7.95;;;3.40;;
75990;SDS011;64673;52.276;10.560;2023-02-28T02:51:21;6.20;;;3.22;;
75990;SDS011;64673;52.276;10.560;2023-02-28T02:56:25;7.05;;;3.10;;
75990;SDS011;64673;52.276;10.560;2023-02-28T02:58:53;6.47;;;3.03;;
75990;SDS011;64673;52.276;10.560;2023-02-28T03:01:23;6.65;;;3.35;;
75990;SDS011;64673;52.276;10.560;2023-02-28T03:03:57;8.70;;;3.60;;
75990;SDS011;64673;52.276;10.560;2023-02-28T03:06:25;6.10;;;3.00;;
75990;SDS011;64673;52.276;10.560;2023-02-28T03:08:51;8.38;;;3.30;;
75990;SDS011;64673;52.276;10.560;2023-02-28T03:11:18;6.93;;;3.47;;
75990;SDS011;64673;52.276;10.560;2023-02-28T03:16:32;8.68;;;3.22;;
75990;SDS011;64673;52.276;10.560;2023-02-28T03:21:34;6.95;;;3.22;;
75990;SDS011;64673;52.276;10.560;2023-02-28T03:24:19;6.10;;;3.28;;
75990;SDS011;64673;52.276;10.560;2023-02-28T03:26:51;11.45;;;3.72;;
75990;SDS011;64673;52.276;10.560;2023-02-28T03:31:54;8.35;;;3.42;;
75990;SDS011;64673;52.276;10.560;2023-02-28T03:34:36;5.90;;;2.97;;
75990;SDS011;64673;52.276;10.560;2023-02-28T03:37:07;4.75;;;2.83;;
75990;SDS011;64673;52.276;10.560;2023-02-28T03:39:39;7.13;;;3.20;;
75990;SDS011;64673;52.276;10.560;2023-02-28T03:42:14;5.28;;;2.95;;
75990;SDS011;64673;52.276;10.560;2023-02-28T03:44:45;5.80;;;3.08;;
75990;SDS011;64673;52.276;10.560;2023-02-28T03:47:23;6.97;;;3.63;;
75990;SDS011;64673;52.276;10.560;2023-02-28T03:49:54;10.13;;;3.10;;
75990;SDS011;64673;52.276;10.560;2023-02-28T03:52:37;8.90;;;3.40;;
75990;SDS011;64673;52.276;10.560;2023-02-28T03:55:10;8.20;;;3.45;;
75990;SDS011;64673;52.276;10.560;2023-02-28T04:00:07;10.07;;;3.97;;
75990;SDS011;64673;52.276;10.560;2023-02-28T04:02:37;7.15;;;3.08;;
75990;SDS011;64673;52.276;10.560;2023-02-28T04:05:02;8.80;;;3.45;;
75990;SDS011;64673;52.276;10.560;2023-02-28T04:07:31;7.05;;;2.80;;
75990;SDS011;64673;52.276;10.560;2023-02-28T04:09:57;8.27;;;3.70;;
75990;SDS011;64673;52.276;10.560;2023-02-28T04:12:22;9.23;;;3.50;;
75990;SDS011;64673;52.276;10.560;2023-02-28T04:14:48;8.30;;;4.00;;
75990;SDS011;64673;52.276;10.560;2023-02-28T04:17:14;5.70;;;2.85;;
75990;SDS011;64673;52.276;10.560;2023-02-28T04:19:39;8.80;;;3.17;;
75990;SDS011;64673;52.276;10.560;2023-02-28T04:22:05;5.72;;;2.78;;
75990;SDS011;64673;52.276;10.560;2023-02-28T04:24:30;4.68;;;2.67;;
75990;SDS011;64673;52.276;10.560;2023-02-28T04:26:56;6.82;;;2.60;;
75990;SDS011;64673;52.276;10.560;2023-02-28T04:29:31;5.30;;;2.45;;
75990;SDS011;64673;52.276;10.560;2023-02-28T04:31:57;12.65;;;3.95;;
75990;SDS011;64673;52.276;10.560;2023-02-28T04:34:24;5.63;;;2.80;;
75990;SDS011;64673;52.276;10.560;2023-02-28T04:36:53;8.80;;;3.83;;
75990;SDS011;64673;52.276;10.560;2023-02-28T04:39:20;5.50;;;2.63;;
75990;SDS011;64673;52.276;10.560;2023-02-28T04:41:46;5.47;;;2.72;;
75990;SDS011;64673;52.276;10.560;2023-02-28T04:44:12;5.28;;;2.72;;
75990;SDS011;64673;52.276;10.560;2023-02-28T04:46:37;7.90;;;3.42;;
75990;SDS011;64673;52.276;10.560;2023-02-28T04:49:03;11.73;;;5.00;;
75990;SDS011;64673;52.276;10.560;2023-02-28T04:51:28;15.93;;;5.88;;
75990;SDS011;64673;52.276;10.560;2023-02-28T04:53:54;6.65;;;2.90;;
75990;SDS011;64673;52.276;10.560;2023-02-28T04:56:20;4.30;;;2.35;;
75990;SDS011;64673;52.276;10.560;2023-02-28T04:58:46;6.55;;;2.90;;
75990;SDS011;64673;52.276;10.560;2023-02-28T05:03:51;6.75;;;2.70;;
75990;SDS011;64673;52.276;10.560;2023-02-28T05:06:18;3.97;;;2.15;;
75990;SDS011;64673;52.276;10.560;2023-02-28T05:08:45;6.00;;;2.80;;
75990;SDS011;64673;52.276;10.560;2023-02-28T05:11:18;4.70;;;2.38;;
75990;SDS011;64673;52.276;10.560;2023-02-28T05:13:52;5.03;;;2.38;;
75990;SDS011;64673;52.276;10.560;2023-02-28T05:16:19;5.25;;;3.20;;
75990;SDS011;64673;52.276;10.560;2023-02-28T05:18:44;5.28;;;2.70;;
75990;SDS011;64673;52.276;10.560;2023-02-28T05:23:50;6.97;;;2.58;;
75990;SDS011;64673;52.276;10.560;2023-02-28T05:26:15;5.75;;;3.53;;
75990;SDS011;64673;52.276;10.560;2023-02-28T05:28:41;5.72;;;2.78;;
75990;SDS011;64673;52.276;10.560;2023-02-28T05:31:07;7.95;;;3.10;;
75990;SDS011;64673;52.276;10.560;2023-02-28T05:33:35;5.68;;;3.13;;
75990;SDS011;64673;52.276;10.560;2023-02-28T05:36:01;5.35;;;2.60;;
75990;SDS011;64673;52.276;10.560;2023-02-28T05:38:26;8.65;;;4.03;;
75990;SDS011;64673;52.276;10.560;2023-02-28T05:40:51;5.80;;;3.00;;
75990;SDS011;64673;52.276;10.560;2023-02-28T05:43:18;6.82;;;3.15;;
75990;SDS011;64673;52.276;10.560;2023-02-28T05:45:43;7.43;;;3.08;;
75990;SDS011;64673;52.276;10.560;2023-02-28T05:48:09;6.05;;;2.75;;
75990;SDS011;64673;52.276;10.560;2023-02-28T05:50:34;4.85;;;2.58;;
75990;SDS011;64673;52.276;10.560;2023-02-28T05:53:00;6.15;;;2.88;;
75990;SDS011;64673;52.276;10.560;2023-02-28T05:55:25;5.35;;;2.58;;
75990;SDS011;64673;52.276;10.560;2023-02-28T05:57:51;5.70;;;2.70;;
75990;SDS011;64673;52.276;10.560;2023-02-28T06:00:16;6.18;;;3.28;;
75990;SDS011;64673;52.276;10.560;2023-02-28T06:02:42;7.15;;;3.22;;
75990;SDS011;64673;52.276;10.560;2023-02-28T06:05:15;7.28;;;3.45;;
75990;SDS011;64673;52.276;10.560;2023-02-28T06:07:41;5.55;;;2.97;;
75990;SDS011;64673;52.276;10.560;2023-02-28T06:10:08;7.45;;;3.00;;
75990;SDS011;64673;52.276;10.560;2023-02-28T06:12:35;8.18;;;3.15;;
75990;SDS011;64673;52.276;10.560;2023-02-28T06:15:02;5.07;;;2.70;;
75990;SDS011;64673;52.276;10.560;2023-02-28T06:17:27;6.15;;;3.38;;
75990;SDS011;64673;52.276;10.560;2023-02-28T06:19:53;6.32;;;2.85;;
75990;SDS011;64673;52.276;10.560;2023-02-28T06:22:18;8.20;;;2.70;;
75990;SDS011;64673;52.276;10.560;2023-02-28T06:24:43;8.18;;;2.92;;
75990;SDS011;64673;52.276;10.560;2023-02-28T06:27:09;6.50;;;3.67;;
75990;SDS011;64673;52.276;10.560;2023-02-28T06:29:34;11.20;;;2.90;;
75990;SDS011;64673;52.276;10.560;2023-02-28T06:32:00;7.13;;;2.90;;
75990;SDS011;64673;52.276;10.560;2023-02-28T06:34:25;6.40;;;2.70;;
75990;SDS011;64673;52.276;10.560;2023-02-28T06:36:51;6.50;;;3.28;;
75990;SDS011;64673;52.276;10.560;2023-02-28T06:39:17;4.60;;;2.65;;
75990;SDS011;64673;52.276;10.560;2023-02-28T06:41:43;5.43;;;2.75;;
75990;SDS011;64673;52.276;10.560;2023-02-28T06:44:14;5.35;;;3.13;;
75990;SDS011;64673;52.276;10.560;2023-02-28T06:46:42;4.85;;;2.75;;
75990;SDS011;64673;52.276;10.560;2023-02-28T06:49:08;5.57;;;2.80;;
75990;SDS011;64673;52.276;10.560;2023-02-28T06:51:35;6.32;;;2.85;;
75990;SDS011;64673;52.276;10.560;2023-02-28T06:54:02;6.47;;;2.95;;
75990;SDS011;64673;52.276;10.560;2023-02-28T06:56:27;5.25;;;2.95;;
75990;SDS011;64673;52.276;10.560;2023-02-28T06:58:53;6.13;;;3.05;;
75990;SDS011;64673;52.276;10.560;2023-02-28T07:01:19;8.23;;;3.45;;
75990;SDS011;64673;52.276;10.560;2023-02-28T07:03:45;8.45;;;3.53;;
75990;SDS011;64673;52.276;10.560;2023-02-28T07:06:11;5.68;;;2.83;;
75990;SDS011;64673;52.276;10.560;2023-02-28T07:08:36;9.43;;;3.58;;
75990;SDS011;64673;52.276;10.560;2023-02-28T07:11:02;6.00;;;3.05;;
75990;SDS011;64673;52.276;10.560;2023-02-28T07:13:28;5.40;;;2.97;;
75990;SDS011;64673;52.276;10.560;2023-02-28T07:15:54;5.68;;;3.15;;
75990;SDS011;64673;52.276;10.560;2023-02-28T07:18:24;5.10;;;2.50;;
75990;SDS011;64673;52.276;10.560;2023-02-28T07:20:49;4.97;;;2.80;;
75990;SDS011;64673;52.276;10.560;2023-02-28T07:23:15;4.50;;;2.45;;
75990;SDS011;64673;52.276;10.560;2023-02-28T07:25:41;5.38;;;2.58;;
75990;SDS011;64673;52.276;10.560;2023-02-28T07:28:06;5.75;;;2.67;;
75990;SDS011;64673;52.276;10.560;2023-02-28T07:30:31;5.15;;;2.38;;
75990;SDS011;64673;52.276;10.560;2023-02-28T07:32:57;5.35;;;2.20;;
75990;SDS011;64673;52.276;10.560;2023-02-28T07:35:22;4.85;;;2.05;;
75990;SDS011;64673;52.276;10.560;2023-02-28T07:37:48;5.43;;;2.17;;
75990;SDS011;64673;52.276;10.560;2023-02-28T07:40:13;4.03;;;2.13;;
75990;SDS011;64673;52.276;10.560;2023-02-28T07:42:40;6.38;;;1.90;;
75990;SDS011;64673;52.276;10.560;2023-02-28T07:45:06;4.97;;;1.52;;
75990;SDS011;64673;52.276;10.560;2023-02-28T07:47:33;3.95;;;1.75;;
75990;SDS011;64673;52.276;10.560;2023-02-28T07:49:59;3.67;;;1.67;;
75990;SDS011;64673;52.276;10.560;2023-02-28T07:52:25;4.35;;;1.45;;
75990;SDS011;64673;52.276;10.560;2023-02-28T07:54:50;4.07;;;1.85;;
75990;SDS011;64673;52.276;10.560;2023-02-28T07:57:16;8.85;;;2.00;;
75990;SDS011;64673;52.276;10.560;2023-02-28T07:59:42;5.07;;;1.90;;
75990;SDS011;64673;52.276;10.560;2023-02-28T08:02:10;3.78;;;1.60;;
75990;SDS011;64673;52.276;10.560;2023-02-28T08:04:40;2.70;;;1.40;;
75990;SDS011;64673;52.276;10.560;2023-02-28T08:07:06;3.90;;;2.03;;
75990;SDS011;64673;52.276;10.560;2023-02-28T08:09:31;3.58;;;2.08;;
75990;SDS011;64673;52.276;10.560;2023-02-28T08:11:57;5.25;;;2.17;;
75990;SDS011;64673;52.276;10.560;2023-02-28T08:14:22;6.10;;;2.40;;
75990;SDS011;64673;52.276;10.560;2023-02-28T08:16:48;4.85;;;2.40;;
75990;SDS011;64673;52.276;10.560;2023-02-28T08:19:13;3.83;;;2.10;;
75990;SDS011;64673;52.276;10.560;2023-02-28T08:21:38;5.60;;;2.53;;
75990;SDS011;64673;52.276;10.560;2023-02-28T08:24:05;4.57;;;2.08;;
75990;SDS011;64673;52.276;10.560;2023-02-28T08:26:30;7.57;;;2.28;;
75990;SDS011;64673;52.276;10.560;2023-02-28T08:28:56;4.90;;;1.92;;
75990;SDS011;64673;52.276;10.560;2023-02-28T08:31:21;6.15;;;2.47;;
75990;SDS011;64673;52.276;10.560;2023-02-28T08:33:48;6.10;;;2.20;;
75990;SDS011;64673;52.276;10.560;2023-02-28T08:36:18;3.75;;;1.60;;
75990;SDS011;64673;52.276;10.560;2023-02-28T08:38:44;4.03;;;1.90;;
75990;SDS011;64673;52.276;10.560;2023-02-28T08:41:11;7.28;;;2.35;;
75990;SDS011;64673;52.276;10.560;2023-02-28T08:43:38;2.30;;;1.48;;
75990;SDS011;64673;52.276;10.560;2023-02-28T08:46:04;5.05;;;1.90;;
75990;SDS011;64673;52.276;10.560;2023-02-28T08:48:32;4.38;;;1.80;;
75990;SDS011;64673;52.276;10.560;2023-02-28T08:51:04;4.72;;;1.95;;
75990;SDS011;64673;52.276;10.560;2023-02-28T08:53:34;3.90;;;1.73;;
75990;SDS011;64673;52.276;10.560;2023-02-28T08:56:05;7.10;;;1.90;;
75990;SDS011;64673;52.276;10.560;2023-02-28T09:01:00;3.53;;;1.47;;
75990;SDS011;64673;52.276;10.560;2023-02-28T09:03:26;6.25;;;1.70;;
75990;SDS011;64673;52.276;10.560;2023-02-28T09:05:58;7.60;;;1.67;;
75990;SDS011;64673;52.276;10.560;2023-02-28T09:08:26;4.20;;;1.80;;
75990;SDS011;64673;52.276;10.560;2023-02-28T09:10:52;3.75;;;1.50;;
75990;SDS011;64673;52.276;10.560;2023-02-28T09:13:19;3.60;;;1.83;;
75990;SDS011;64673;52.276;10.560;2023-02-28T09:15:45;3.85;;;2.03;;
75990;SDS011;64673;52.276;10.560;2023-02-28T09:18:10;2.60;;;1.42;;
75990;SDS011;64673;52.276;10.560;2023-02-28T09:20:39;4.18;;;1.67;;
75990;SDS011;64673;52.276;10.560;2023-02-28T09:23:06;3.78;;;1.83;;
75990;SDS011;64673;52.276;10.560;2023-02-28T09:25:33;4.90;;;1.50;;
75990;SDS011;64673;52.276;10.560;2023-02-28T09:27:59;3.78;;;1.48;;
75990;SDS011;64673;52.276;10.560;2023-02-28T09:30:25;5.57;;;1.67;;
75990;SDS011;64673;52.276;10.560;2023-02-28T09:32:50;3.53;;;1.45;;
75990;SDS011;64673;52.276;10.560;2023-02-28T09:35:17;3.92;;;1.40;;
75990;SDS011;64673;52.276;10.560;2023-02-28T09:37:43;5.85;;;1.95;;
75990;SDS011;64673;52.276;10.560;2023-02-28T09:40:09;4.95;;;2.00;;
75990;SDS011;64673;52.276;10.560;2023-02-28T09:42:37;4.80;;;1.65;;
75990;SDS011;64673;52.276;10.560;2023-02-28T09:45:05;4.90;;;1.58;;
75990;SDS011;64673;52.276;10.560;2023-02-28T09:47:40;4.03;;;2.00;;
75990;SDS011;64673;52.276;10.560;2023-02-28T09:50:22;3.63;;;1.80;;
75990;SDS011;64673;52.276;10.560;2023-02-28T09:52:54;2.90;;;1.30;;
75990;SDS011;64673;52.276;10.560;2023-02-28T09:55:28;4.65;;;1.70;;
75990;SDS011;64673;52.276;10.560;2023-02-28T09:57:58;2.50;;;1.33;;
75990;SDS011;64673;52.276;10.560;2023-02-28T10:00:38;3.10;;;1.35;;
75990;SDS011;64673;52.276;10.560;2023-02-28T10:05:52;2.35;;;1.27;;
75990;SDS011;64673;52.276;10.560;2023-02-28T10:08:48;4.68;;;1.42;;
75990;SDS011;64673;52.276;10.560;2023-02-28T10:11:28;3.42;;;1.20;;
75990;SDS011;64673;52.276;10.560;2023-02-28T10:18:57;2.58;;;1.00;;
75990;SDS011;64673;52.276;10.560;2023-02-28T10:21:35;2.90;;;1.17;;
75990;SDS011;64673;52.276;10.560;2023-02-28T10:26:56;1.73;;;0.90;;
75990;SDS011;64673;52.276;10.560;2023-02-28T10:29:26;2.15;;;0.65;;
75990;SDS011;64673;52.276;10.560;2023-02-28T10:31:52;2.42;;;0.82;;
75990;SDS011;64673;52.276;10.560;2023-02-28T10:34:18;2.22;;;0.85;;
75990;SDS011;64673;52.276;10.560;2023-02-28T10:36:43;2.00;;;1.00;;
75990;SDS011;64673;52.276;10.560;2023-02-28T10:42:05;2.25;;;1.00;;
75990;SDS011;64673;52.276;10.560;2023-02-28T10:53:28;2.13;;;0.80;;
75990;SDS011;64673;52.276;10.560;2023-02-28T10:58:28;2.60;;;0.90;;
75990;SDS011;64673;52.276;10.560;2023-02-28T11:01:11;2.17;;;0.70;;
75990;SDS011;64673;52.276;10.560;2023-02-28T11:03:39;4.07;;;0.95;;
75990;SDS011;64673;52.276;10.560;2023-02-28T11:06:05;1.98;;;0.63;;
75990;SDS011;64673;52.276;10.560;2023-02-28T11:08:42;1.90;;;0.98;;
75990;SDS011;64673;52.276;10.560;2023-02-28T11:11:09;2.65;;;1.02;;
75990;SDS011;64673;52.276;10.560;2023-02-28T11:13:35;2.78;;;1.48;;
75990;SDS011;64673;52.276;10.560;2023-02-28T11:16:06;2.42;;;1.13;;
75990;SDS011;64673;52.276;10.560;2023-02-28T11:21:03;2.53;;;1.10;;
75990;SDS011;64673;52.276;10.560;2023-02-28T11:23:29;2.30;;;0.80;;
75990;SDS011;64673;52.276;10.560;2023-02-28T11:25:59;2.63;;;0.90;;
75990;SDS011;64673;52.276;10.560;2023-02-28T11:31:38;2.55;;;0.98;;
75990;SDS011;64673;52.276;10.560;2023-02-28T11:33:47;2.83;;;1.20;;
75990;SDS011;64673;52.276;10.560;2023-02-28T11:36:22;1.70;;;0.85;;
75990;SDS011;64673;52.276;10.560;2023-02-28T11:38:49;2.30;;;0.95;;
75990;SDS011;64673;52.276;10.560;2023-02-28T11:41:32;3.13;;;1.45;;
75990;SDS011;64673;52.276;10.560;2023-02-28T11:52:20;1.25;;;0.77;;
75990;SDS011;64673;52.276;10.560;2023-02-28T11:54:53;1.95;;;0.98;;
75990;SDS011;64673;52.276;10.560;2023-02-28T12:09:14;2.47;;;0.77;;
75990;SDS011;64673;52.276;10.560;2023-02-28T12:12:01;2.13;;;0.73;;
75990;SDS011;64673;52.276;10.560;2023-02-28T12:26:23;3.67;;;1.20;;
75990;SDS011;64673;52.276;10.560;2023-02-28T12:31:56;2.30;;;1.08;;
75990;SDS011;64673;52.276;10.560;2023-02-28T12:34:38;3.03;;;1.30;;
75990;SDS011;64673;52.276;10.560;2023-02-28T12:37:10;2.15;;;1.00;;
75990;SDS011;64673;52.276;10.560;2023-02-28T12:39:44;2.40;;;1.00;;
75990;SDS011;64673;52.276;10.560;2023-02-28T12:42:14;2.90;;;0.95;;
75990;SDS011;64673;52.276;10.560;2023-02-28T12:44:52;2.55;;;1.17;;
75990;SDS011;64673;52.276;10.560;2023-02-28T12:47:21;2.20;;;1.15;;
75990;SDS011;64673;52.276;10.560;2023-02-28T12:49:57;3.50;;;1.20;;
75990;SDS011;64673;52.276;10.560;2023-02-28T12:55:06;2.25;;;1.10;;
75990;SDS011;64673;52.276;10.560;2023-02-28T13:09:28;2.50;;;1.10;;
75990;SDS011;64673;52.276;10.560;2023-02-28T13:11:54;2.03;;;0.95;;
75990;SDS011;64673;52.276;10.560;2023-02-28T13:19:23;3.00;;;1.08;;
75990;SDS011;64673;52.276;10.560;2023-02-28T13:21:51;3.22;;;1.00;;
75990;SDS011;64673;52.276;10.560;2023-02-28T13:25:02;3.25;;;1.30;;
75990;SDS011;64673;52.276;10.560;2023-02-28T13:29:33;2.08;;;1.20;;
75990;SDS011;64673;52.276;10.560;2023-02-28T13:34:33;2.63;;;1.10;;
75990;SDS011;64673;52.276;10.560;2023-02-28T13:55:43;2.33;;;1.15;;
75990;SDS011;64673;52.276;10.560;2023-02-28T13:58:42;2.13;;;1.33;;
75990;SDS011;64673;52.276;10.560;2023-02-28T14:03:44;3.67;;;1.50;;
75990;SDS011;64673;52.276;10.560;2023-02-28T14:06:15;4.65;;;1.30;;
75990;SDS011;64673;52.276;10.560;2023-02-28T14:11:31;3.45;;;1.20;;
75990;SDS011;64673;52.276;10.560;2023-02-28T14:13:59;2.65;;;1.35;;
75990;SDS011;64673;52.276;10.560;2023-02-28T14:16:26;3.95;;;1.33;;
75990;SDS011;64673;52.276;10.560;2023-02-28T14:19:13;3.30;;;1.50;;
75990;SDS011;64673;52.276;10.560;2023-02-28T14:37:53;2.85;;;1.10;;
75990;SDS011;64673;52.276;10.560;2023-02-28T14:40:40;4.90;;;1.17;;
75990;SDS011;64673;52.276;10.560;2023-02-28T14:43:16;3.60;;;1.40;;
75990;SDS011;64673;52.276;10.560;2023-02-28T14:45:48;3.15;;;1.63;;
75990;SDS011;64673;52.276;10.560;2023-02-28T14:48:15;3.20;;;1.60;;
75990;SDS011;64673;52.276;10.560;2023-02-28T14:50:42;2.33;;;1.20;;
75990;SDS011;64673;52.276;10.560;2023-02-28T14:53:15;3.92;;;1.30;;
75990;SDS011;64673;52.276;10.560;2023-02-28T14:55:44;3.80;;;2.00;;
75990;SDS011;64673;52.276;10.560;2023-02-28T14:58:21;3.33;;;1.35;;
75990;SDS011;64673;52.276;10.560;2023-02-28T15:00:51;2.30;;;1.30;;
75990;SDS011;64673;52.276;10.560;2023-02-28T15:05:53;3.08;;;1.33;;
75990;SDS011;64673;52.276;10.560;2023-02-28T15:08:22;4.25;;;1.75;;
75990;SDS011;64673;52.276;10.560;2023-02-28T15:10:52;2.42;;;1.42;;
75990;SDS011;64673;52.276;10.560;2023-02-28T15:13:18;2.70;;;1.63;;
75990;SDS011;64673;52.276;10.560;2023-02-28T15:18:18;4.15;;;1.65;;
75990;SDS011;64673;52.276;10.560;2023-02-28T15:20:57;3.95;;;1.52;;
75990;SDS011;64673;52.276;10.560;2023-02-28T15:23:26;2.40;;;1.33;;
75990;SDS011;64673;52.276;10.560;2023-02-28T15:25:52;2.95;;;1.50;;
75990;SDS011;64673;52.276;10.560;2023-02-28T15:28:19;4.15;;;1.50;;
75990;SDS011;64673;52.276;10.560;2023-02-28T15:31:00;3.50;;;1.42;;
75990;SDS011;64673;52.276;10.560;2023-02-28T15:33:28;2.90;;;1.30;;
75990;SDS011;64673;52.276;10.560;2023-02-28T15:36:15;3.33;;;1.70;;
75990;SDS011;64673;52.276;10.560;2023-02-28T15:38:45;2.75;;;1.60;;
75990;SDS011;64673;52.276;10.560;2023-02-28T15:41:23;3.17;;;1.42;;
75990;SDS011;64673;52.276;10.560;2023-02-28T15:44:13;3.90;;;1.50;;
75990;SDS011;64673;52.276;10.560;2023-02-28T15:46:53;3.97;;;1.52;;
75990;SDS011;64673;52.276;10.560;2023-02-28T15:49:21;2.92;;;1.48;;
75990;SDS011;64673;52.276;10.560;2023-02-28T15:51:49;3.70;;;1.73;;
75990;SDS011;64673;52.276;10.560;2023-02-28T15:54:24;3.40;;;1.60;;
75990;SDS011;64673;52.276;10.560;2023-02-28T15:57:02;3.50;;;1.70;;
75990;SDS011;64673;52.276;10.560;2023-02-28T15:59:36;3.28;;;1.55;;
75990;SDS011;64673;52.276;10.560;2023-02-28T16:02:15;3.67;;;1.60;;
75990;SDS011;64673;52.276;10.560;2023-02-28T16:04:59;3.80;;;1.42;;
75990;SDS011;64673;52.276;10.560;2023-02-28T16:07:31;2.67;;;1.40;;
75990;SDS011;64673;52.276;10.560;2023-02-28T16:09:58;3.38;;;1.42;;
75990;SDS011;64673;52.276;10.560;2023-02-28T16:12:31;2.88;;;1.40;;
75990;SDS011;64673;52.276;10.560;2023-02-28T16:15:00;4.85;;;1.58;;
75990;SDS011;64673;52.276;10.560;2023-02-28T16:17:35;3.63;;;1.60;;
75990;SDS011;64673;52.276;10.560;2023-02-28T16:20:11;4.63;;;1.70;;
75990;SDS011;64673;52.276;10.560;2023-02-28T16:22:38;3.15;;;1.42;;
75990;SDS011;64673;52.276;10.560;2023-02-28T16:25:04;2.97;;;1.50;;
75990;SDS011;64673;52.276;10.560;2023-02-28T16:27:33;3.85;;;1.55;;
75990;SDS011;64673;52.276;10.560;2023-02-28T16:30:03;3.15;;;1.50;;
75990;SDS011;64673;52.276;10.560;2023-02-28T16:32:30;2.97;;;1.30;;
75990;SDS011;64673;52.276;10.560;2023-02-28T16:34:59;4.38;;;1.30;;
75990;SDS011;64673;52.276;10.560;2023-02-28T16:37:26;3.10;;;1.13;;
75990;SDS011;64673;52.276;10.560;2023-02-28T16:39:52;2.42;;;1.35;;
75990;SDS011;64673;52.276;10.560;2023-02-28T16:42:21;2.42;;;1.02;;
75990;SDS011;64673;52.276;10.560;2023-02-28T16:44:49;1.83;;;1.02;;
75990;SDS011;64673;52.276;10.560;2023-02-28T16:47:15;4.05;;;1.40;;
75990;SDS011;64673;52.276;10.560;2023-02-28T16:49:40;3.42;;;1.40;;
75990;SDS011;64673;52.276;10.560;2023-02-28T16:52:08;3.60;;;1.48;;
75990;SDS011;64673;52.276;10.560;2023-02-28T16:54:34;2.33;;;0.85;;
75990;SDS011;64673;52.276;10.560;2023-02-28T16:56:59;3.05;;;1.45;;
75990;SDS011;64673;52.276;10.560;2023-02-28T16:59:25;2.00;;;1.10;;
75990;SDS011;64673;52.276;10.560;2023-02-28T17:01:52;3.13;;;1.05;;
75990;SDS011;64673;52.276;10.560;2023-02-28T17:04:18;3.25;;;1.42;;
75990;SDS011;64673;52.276;10.560;2023-02-28T17:06:44;3.35;;;1.25;;
75990;SDS011;64673;52.276;10.560;2023-02-28T17:09:14;4.22;;;1.58;;
75990;SDS011;64673;52.276;10.560;2023-02-28T17:11:42;3.08;;;1.55;;
75990;SDS011;64673;52.276;10.560;2023-02-28T17:14:07;6.05;;;1.80;;
75990;SDS011;64673;52.276;10.560;2023-02-28T17:16:33;4.45;;;1.83;;
75990;SDS011;64673;52.276;10.560;2023-02-28T17:19:03;3.10;;;1.33;;
75990;SDS011;64673;52.276;10.560;2023-02-28T17:21:30;3.78;;;1.38;;
75990;SDS011;64673;52.276;10.560;2023-02-28T17:23:56;6.57;;;2.10;;
75990;SDS011;64673;52.276;10.560;2023-02-28T17:26:22;5.57;;;1.80;;
75990;SDS011;64673;52.276;10.560;2023-02-28T17:28:52;5.20;;;1.77;;
75990;SDS011;64673;52.276;10.560;2023-02-28T17:31:20;5.65;;;2.20;;
75990;SDS011;64673;52.276;10.560;2023-02-28T17:33:46;4.28;;;2.25;;
75990;SDS011;64673;52.276;10.560;2023-02-28T17:36:15;5.20;;;2.30;;